Time;durP1;ratioP1;P1;durP2;ratioP2;P2;SDS_P1;SDS_P2;PMS_P1;PMS_P2;Temp;Humidity;BMP_temperature;BMP_pressure;BME280_temperature;BME280_humidity;BME280_pressure;Samples;Min_cycle;Max_cycle;Signal;HPM_P1;HPM_P2
2021/12/06 00:00:29;;;;;;;14.38;6.88;;;4.20;99.90;;;;;;5158484;27;20378;-86
2021/12/06 00:02:59;;;;;;;20.58;7.00;;;4.20;99.90;;;;;;5158444;27;20560;-86
2021/12/06 00:05:28;;;;;;;13.23;6.05;;;4.20;99.90;;;;;;5158447;27;20489;-86
2021/12/06 00:07:55;;;;;;;25.30;6.53;;;4.30;99.90;;;;;;5158568;27;20074;-86
2021/12/06 00:10:22;;;;;;;19.17;7.25;;;4.30;99.90;;;;;;5158580;27;20054;-86
2021/12/06 00:12:51;;;;;;;17.45;7.10;;;4.60;99.90;;;;;;5158065;27;20454;-87
2021/12/06 00:15:18;;;;;;;21.38;6.00;;;4.30;99.90;;;;;;5158466;27;20092;-87
2021/12/06 00:17:45;;;;;;;17.13;6.45;;;4.20;99.90;;;;;;5158001;27;20513;-87
2021/12/06 00:20:15;;;;;;;20.05;6.55;;;4.10;99.90;;;;;;5157700;27;20433;-87
2021/12/06 00:22:42;;;;;;;26.90;6.78;;;4.10;99.90;;;;;;5158201;27;20050;-86
2021/12/06 00:25:11;;;;;;;25.75;7.78;;;4.00;99.90;;;;;;5158243;27;20038;-87
2021/12/06 00:27:39;;;;;;;16.13;6.22;;;4.00;99.90;;;;;;5158674;27;20050;-86
2021/12/06 00:30:15;;;;;;;19.15;7.63;;;4.10;99.90;;;;;;5160174;27;20046;-86
2021/12/06 00:32:43;;;;;;;17.52;7.28;;;3.80;99.90;;;;;;5160558;27;20133;-86
2021/12/06 00:35:21;;;;;;;15.40;8.52;;;4.10;99.90;;;;;;5161848;27;20131;-86
2021/12/06 00:37:56;;;;;;;14.77;7.20;;;3.80;99.90;;;;;;5159264;27;20046;-87
2021/12/06 00:40:26;;;;;;;18.40;7.45;;;4.10;99.90;;;;;;5157881;27;20099;-87
2021/12/06 00:42:53;;;;;;;29.83;8.48;;;3.70;99.90;;;;;;5157666;27;20047;-86
2021/12/06 00:45:24;;;;;;;21.23;7.35;;;3.70;99.90;;;;;;5157815;27;20054;-87
2021/12/06 00:47:52;;;;;;;23.30;8.50;;;4.20;99.90;;;;;;5157409;27;20039;-86
2021/12/06 00:50:21;;;;;;;16.77;7.20;;;3.80;99.90;;;;;;5157269;27;20058;-86
2021/12/06 00:52:50;;;;;;;17.25;7.43;;;4.30;99.90;;;;;;5157109;27;20043;-87
2021/12/06 00:55:19;;;;;;;15.65;7.82;;;3.60;99.90;;;;;;5157079;27;20046;-87
2021/12/06 00:57:47;;;;;;;17.25;7.07;;;4.60;99.90;;;;;;5157007;27;20047;-87
2021/12/06 01:00:18;;;;;;;18.13;7.40;;;3.50;99.90;;;;;;5156850;27;20050;-87
2021/12/06 01:02:47;;;;;;;26.33;7.80;;;3.50;99.90;;;;;;5157200;27;20046;-88
2021/12/06 01:05:15;;;;;;;18.38;9.15;;;3.50;99.90;;;;;;5156880;27;20050;-87
2021/12/06 01:07:42;;;;;;;25.15;7.50;;;3.60;99.90;;;;;;5156756;27;20049;-86
2021/12/06 01:10:10;;;;;;;23.45;8.68;;;4.10;99.90;;;;;;5156509;27;20476;-86
2021/12/06 01:12:38;;;;;;;23.33;9.70;;;3.70;99.90;;;;;;5156160;27;20476;-87
2021/12/06 01:15:05;;;;;;;19.20;7.68;;;3.70;99.90;;;;;;5156441;27;20484;-86
2021/12/06 01:17:33;;;;;;;19.80;7.75;;;3.70;99.90;;;;;;5156511;27;20046;-87
2021/12/06 01:20:04;;;;;;;19.80;7.38;;;3.60;99.90;;;;;;5156581;27;20047;-86
2021/12/06 01:22:40;;;;;;;24.00;8.93;;;3.50;99.90;;;;;;5156779;27;20061;-87
2021/12/06 01:25:20;;;;;;;19.58;7.15;;;3.50;99.90;;;;;;5156774;27;20129;-86
2021/12/06 01:28:14;;;;;;;15.95;7.53;;;3.50;99.90;;;;;;5156797;27;20039;-87
2021/12/06 01:30:52;;;;;;;21.00;8.45;;;3.50;99.90;;;;;;5156341;27;20045;-87
2021/12/06 01:39:13;;;;;;;18.27;8.82;;;3.30;99.90;;;;;;5155519;27;20519;-88
2021/12/06 01:41:44;;;;;;;23.05;9.18;;;3.30;99.90;;;;;;5156231;27;20394;-88
2021/12/06 01:44:14;;;;;;;21.55;10.40;;;3.20;99.90;;;;;;5137887;27;20043;-88
2021/12/06 01:46:46;;;;;;;21.92;8.38;;;3.20;99.90;;;;;;5156208;27;20043;-88
2021/12/06 01:49:15;;;;;;;16.02;8.13;;;3.20;99.90;;;;;;5156112;27;20043;-87
2021/12/06 01:51:45;;;;;;;22.58;9.70;;;3.20;99.90;;;;;;5156103;27;20043;-87
2021/12/06 01:54:12;;;;;;;19.33;9.57;;;3.20;99.90;;;;;;5155848;27;20051;-87
2021/12/06 01:56:39;;;;;;;16.30;7.55;;;3.10;99.90;;;;;;5155769;27;20038;-86
2021/12/06 01:59:07;;;;;;;22.23;9.65;;;3.30;99.90;;;;;;5155351;27;20549;-88
2021/12/06 02:01:34;;;;;;;23.42;9.18;;;3.20;99.90;;;;;;5155817;27;20095;-87
2021/12/06 02:04:02;;;;;;;23.92;10.05;;;3.20;99.90;;;;;;5155841;27;20046;-88
2021/12/06 02:06:30;;;;;;;20.63;8.65;;;3.20;99.90;;;;;;5155745;27;20099;-87
2021/12/06 02:08:58;;;;;;;23.73;9.60;;;3.30;99.90;;;;;;5155147;27;20050;-87
2021/12/06 02:11:28;;;;;;;26.35;9.73;;;3.20;99.90;;;;;;5155120;27;20092;-88
2021/12/06 02:14:03;;;;;;;20.77;9.25;;;3.00;99.90;;;;;;5155593;27;20230;-87
2021/12/06 02:16:38;;;;;;;25.42;10.18;;;3.30;99.90;;;;;;5155315;27;20043;-86
2021/12/06 02:19:06;;;;;;;21.80;10.10;;;3.30;99.90;;;;;;5155424;27;20126;-87
2021/12/06 02:21:41;;;;;;;23.38;9.68;;;3.30;99.90;;;;;;5155640;27;20092;-88
2021/12/06 02:24:09;;;;;;;20.92;9.40;;;3.70;99.90;;;;;;5155439;27;20043;-87
2021/12/06 02:26:39;;;;;;;26.08;9.90;;;3.20;99.90;;;;;;5155488;27;20126;-87
2021/12/06 02:29:07;;;;;;;27.60;10.50;;;3.20;99.90;;;;;;5155507;27;20042;-87
2021/12/06 02:31:36;;;;;;;21.27;9.80;;;3.20;99.90;;;;;;5160527;27;20050;-86
2021/12/06 02:34:04;;;;;;;28.20;12.35;;;3.20;99.90;;;;;;5160779;27;20054;-87
2021/12/06 02:36:31;;;;;;;23.75;11.25;;;4.30;99.90;;;;;;5165095;27;20073;-85
2021/12/06 02:39:00;;;;;;;20.63;10.32;;;3.60;99.90;;;;;;5160990;27;20462;-86
2021/12/06 02:41:29;;;;;;;26.35;10.85;;;3.10;99.90;;;;;;5155741;27;20127;-86
2021/12/06 02:43:57;;;;;;;27.58;10.25;;;3.10;99.90;;;;;;5137553;27;20085;-86
2021/12/06 02:46:24;;;;;;;26.83;11.27;;;3.10;99.90;;;;;;5155563;27;20050;-85
2021/12/06 02:48:51;;;;;;;22.40;10.98;;;3.20;99.90;;;;;;5155587;27;20133;-87
2021/12/06 02:51:20;;;;;;;24.73;11.30;;;3.60;99.90;;;;;;5159561;27;20100;-86
2021/12/06 02:53:48;;;;;;;26.55;11.30;;;3.00;99.90;;;;;;5159707;27;20106;-86
2021/12/06 02:56:32;;;;;;;27.80;11.38;;;3.70;99.90;;;;;;5159456;27;20107;-86
2021/12/06 02:59:02;;;;;;;22.30;11.35;;;3.30;99.90;;;;;;5159678;27;20051;-86
2021/12/06 03:01:34;;;;;;;24.30;10.73;;;3.10;99.90;;;;;;5152557;27;20043;-85
2021/12/06 03:04:02;;;;;;;15.70;9.57;;;3.20;99.90;;;;;;5158352;27;20060;-86
2021/12/06 03:06:31;;;;;;;24.13;11.70;;;3.30;99.90;;;;;;5159253;27;20092;-86
2021/12/06 03:09:05;;;;;;;19.35;10.77;;;4.20;99.90;;;;;;5159312;27;20106;-86
2021/12/06 03:11:36;;;;;;;28.48;10.90;;;3.10;99.90;;;;;;5159058;27;20484;-88
2021/12/06 03:14:04;;;;;;;21.67;11.20;;;3.20;99.90;;;;;;5159225;27;20050;-87
2021/12/06 03:16:32;;;;;;;24.13;10.60;;;3.20;99.90;;;;;;5159383;27;20047;-87
2021/12/06 03:19:00;;;;;;;18.65;10.23;;;3.20;99.90;;;;;;5158775;27;20480;-86
2021/12/06 03:21:27;;;;;;;16.35;9.38;;;3.40;99.90;;;;;;5158958;27;20050;-86
2021/12/06 03:23:57;;;;;;;27.25;10.75;;;3.20;99.90;;;;;;5158685;27;20078;-87
2021/12/06 03:26:24;;;;;;;16.25;8.40;;;3.30;99.90;;;;;;5159070;27;20046;-86
2021/12/06 03:28:53;;;;;;;16.60;9.52;;;3.40;99.90;;;;;;5158809;27;20091;-87
2021/12/06 03:31:21;;;;;;;30.95;10.57;;;3.40;99.90;;;;;;5158428;27;20100;-88
2021/12/06 03:33:51;;;;;;;24.65;10.05;;;3.40;99.90;;;;;;5158146;27;20054;-87
2021/12/06 03:36:20;;;;;;;27.42;9.57;;;3.20;99.90;;;;;;5152176;27;20110;-86
2021/12/06 03:38:48;;;;;;;19.98;9.30;;;3.20;99.90;;;;;;5137263;27;20039;-86
2021/12/06 03:41:16;;;;;;;29.08;10.20;;;3.10;99.90;;;;;;5137795;27;20048;-86
2021/12/06 03:43:44;;;;;;;16.77;7.57;;;3.20;99.90;;;;;;5137544;27;20051;-86
2021/12/06 03:46:15;;;;;;;21.20;8.40;;;3.30;99.90;;;;;;5137517;27;20044;-87
2021/12/06 03:48:43;;;;;;;18.52;8.52;;;3.30;99.90;;;;;;5118803;27;20170;-87
2021/12/06 03:51:10;;;;;;;18.20;9.27;;;3.30;99.90;;;;;;5136967;27;20047;-87
2021/12/06 03:53:37;;;;;;;16.88;8.77;;;3.30;99.90;;;;;;5137047;27;20566;-87
2021/12/06 03:56:05;;;;;;;23.40;8.85;;;3.30;99.90;;;;;;5137030;27;20104;-87
2021/12/06 03:58:33;;;;;;;18.10;8.27;;;3.40;99.90;;;;;;5136819;27;20047;-87
2021/12/06 04:01:02;;;;;;;18.08;8.77;;;3.40;99.90;;;;;;5136521;27;20047;-87
2021/12/06 04:03:33;;;;;;;19.02;8.95;;;3.40;99.90;;;;;;5136694;27;20512;-87
2021/12/06 04:06:00;;;;;;;21.33;9.32;;;3.40;99.90;;;;;;5137405;27;20467;-87
2021/12/06 04:08:27;;;;;;;15.52;7.85;;;3.40;99.90;;;;;;5137016;27;20047;-87
2021/12/06 04:10:55;;;;;;;17.83;7.07;;;3.60;99.90;;;;;;5147188;27;20075;-87
2021/12/06 04:13:23;;;;;;;17.42;8.18;;;3.80;99.90;;;;;;5157852;27;20078;-87
2021/12/06 04:15:50;;;;;;;23.67;8.73;;;3.80;99.90;;;;;;5157603;27;20126;-88
2021/12/06 04:18:17;;;;;;;17.40;8.02;;;3.70;99.90;;;;;;5157354;27;20095;-87
2021/12/06 04:20:46;;;;;;;19.85;8.38;;;3.90;99.90;;;;;;5157190;27;20050;-87
2021/12/06 04:23:14;;;;;;;14.27;7.65;;;3.70;99.90;;;;;;5157510;27;20054;-87
2021/12/06 04:25:41;;;;;;;31.70;11.90;;;3.80;99.90;;;;;;5157521;27;20039;-86
2021/12/06 04:28:13;;;;;;;16.17;7.05;;;3.80;99.90;;;;;;5157604;27;20416;-86
2021/12/06 04:30:41;;;;;;;17.75;8.55;;;4.00;99.90;;;;;;5157942;27;20081;-86
2021/12/06 04:33:09;;;;;;;18.05;8.40;;;4.10;99.90;;;;;;5160809;27;20552;-85
2021/12/06 04:35:38;;;;;;;21.25;8.40;;;4.00;99.90;;;;;;5165191;27;20043;-86
2021/12/06 04:38:09;;;;;;;15.02;8.73;;;4.10;99.90;;;;;;5164986;27;20042;-86
2021/12/06 04:40:38;;;;;;;21.77;10.02;;;3.90;99.90;;;;;;5165145;27;20046;-86
2021/12/06 04:43:06;;;;;;;23.73;9.10;;;4.00;99.90;;;;;;5157381;27;20465;-86
2021/12/06 04:45:33;;;;;;;17.90;8.77;;;4.00;99.90;;;;;;5157397;27;20489;-87
2021/12/06 04:48:00;;;;;;;19.73;8.80;;;4.00;99.90;;;;;;5157151;27;20039;-88
2021/12/06 04:50:32;;;;;;;15.25;8.23;;;4.00;99.90;;;;;;5156858;27;20549;-87
2021/12/06 04:53:03;;;;;;;17.52;8.07;;;4.30;99.90;;;;;;5157174;27;20047;-86
2021/12/06 04:55:37;;;;;;;17.70;8.73;;;4.20;99.90;;;;;;5157008;27;20046;-87
2021/12/06 04:58:05;;;;;;;17.48;8.10;;;3.90;99.90;;;;;;5157024;27;20046;-86
2021/12/06 05:00:36;;;;;;;15.75;7.50;;;4.10;99.90;;;;;;5156997;27;20047;-87
2021/12/06 05:03:04;;;;;;;21.00;8.07;;;4.30;99.90;;;;;;5157103;27;20103;-87
2021/12/06 05:05:35;;;;;;;12.88;8.50;;;4.20;99.90;;;;;;5157292;27;20106;-87
2021/12/06 05:08:06;;;;;;;17.58;7.60;;;4.20;99.90;;;;;;5157102;27;20043;-86
2021/12/06 05:10:35;;;;;;;16.55;7.43;;;4.20;99.90;;;;;;5157149;27;20054;-86
2021/12/06 05:13:02;;;;;;;14.50;7.45;;;4.50;99.90;;;;;;5155914;27;20046;-86
2021/12/06 05:15:29;;;;;;;18.85;8.10;;;4.30;99.90;;;;;;5156693;27;20118;-88
2021/12/06 05:17:56;;;;;;;14.45;7.47;;;4.20;99.90;;;;;;5156866;27;20070;-87
2021/12/06 05:20:23;;;;;;;20.67;7.32;;;4.20;99.90;;;;;;5156458;27;20492;-87
2021/12/06 05:22:51;;;;;;;12.80;6.22;;;4.30;99.90;;;;;;5156436;27;20091;-86
2021/12/06 05:25:22;;;;;;;16.30;5.60;;;4.40;99.90;;;;;;5155993;27;20119;-87
2021/12/06 05:27:51;;;;;;;16.88;6.28;;;4.30;99.90;;;;;;5156891;27;20047;-87
2021/12/06 05:30:21;;;;;;;17.40;6.13;;;4.30;99.90;;;;;;5156738;27;20051;-87
2021/12/06 05:32:48;;;;;;;13.80;5.65;;;4.30;99.90;;;;;;5153153;27;20118;-86
2021/12/06 05:35:15;;;;;;;16.75;6.22;;;4.40;99.90;;;;;;5135721;27;20051;-87
2021/12/06 05:37:45;;;;;;;13.80;5.43;;;4.60;99.90;;;;;;5135631;27;20092;-86
2021/12/06 05:40:16;;;;;;;18.33;6.30;;;4.50;99.90;;;;;;5135727;27;20104;-87
2021/12/06 05:42:44;;;;;;;18.30;5.72;;;4.50;99.90;;;;;;5135749;27;20067;-87
2021/12/06 05:45:15;;;;;;;18.75;6.68;;;4.40;99.90;;;;;;5135673;27;20451;-87
2021/12/06 05:47:42;;;;;;;20.17;5.88;;;4.40;99.90;;;;;;5135687;27;20108;-87
2021/12/06 05:50:10;;;;;;;17.48;5.38;;;4.30;99.90;;;;;;5135314;27;20055;-87
2021/12/06 05:52:39;;;;;;;16.00;5.43;;;4.50;99.90;;;;;;5135158;27;20100;-87
2021/12/06 05:55:08;;;;;;;16.85;5.32;;;4.50;99.90;;;;;;5134838;27;20538;-88
2021/12/06 05:57:35;;;;;;;9.90;5.05;;;4.50;99.90;;;;;;5135069;27;20050;-87
2021/12/06 06:00:04;;;;;;;9.68;3.88;;;4.50;99.90;;;;;;5134598;27;20055;-87
2021/12/06 06:02:32;;;;;;;12.05;4.93;;;4.60;99.90;;;;;;5134796;27;20040;-87
2021/12/06 06:04:59;;;;;;;22.75;6.28;;;4.80;99.90;;;;;;5134767;27;20043;-86
2021/12/06 06:07:26;;;;;;;12.88;5.40;;;4.50;99.90;;;;;;5135193;27;20043;-88
2021/12/06 06:09:53;;;;;;;11.75;5.05;;;4.40;99.90;;;;;;5136648;27;20074;-87
2021/12/06 06:12:20;;;;;;;18.52;5.22;;;4.50;99.90;;;;;;5155961;27;20043;-87
2021/12/06 06:14:47;;;;;;;11.05;3.90;;;4.60;99.90;;;;;;5156034;27;20050;-87
2021/12/06 06:17:18;;;;;;;10.07;4.10;;;4.80;99.90;;;;;;5155264;27;20091;-86
2021/12/06 06:19:49;;;;;;;16.48;3.90;;;4.70;99.90;;;;;;5135171;27;20051;-87
2021/12/06 06:22:16;;;;;;;14.10;3.88;;;4.70;99.90;;;;;;5135615;27;20051;-87
2021/12/06 06:24:43;;;;;;;11.35;4.53;;;4.70;99.90;;;;;;5134796;27;20115;-88
2021/12/06 06:27:10;;;;;;;12.88;5.65;;;4.80;99.90;;;;;;5135447;27;20043;-87
2021/12/06 06:29:38;;;;;;;12.35;4.45;;;4.90;99.90;;;;;;5135044;27;20053;-87
2021/12/06 06:32:06;;;;;;;13.95;4.95;;;4.90;99.90;;;;;;5135244;27;20082;-87
2021/12/06 06:34:34;;;;;;;16.75;4.75;;;4.90;99.90;;;;;;5134726;27;20066;-87
2021/12/06 06:37:04;;;;;;;11.88;4.07;;;4.80;99.90;;;;;;5142086;27;20043;-86
2021/12/06 06:39:31;;;;;;;12.70;3.83;;;4.80;99.90;;;;;;5145017;27;20076;-86
2021/12/06 06:41:58;;;;;;;13.98;5.05;;;4.80;99.90;;;;;;5150493;28;20043;-86
2021/12/06 06:44:25;;;;;;;10.43;3.67;;;4.80;99.90;;;;;;5144503;28;20043;-87
2021/12/06 06:46:53;;;;;;;17.95;5.03;;;4.80;99.90;;;;;;5135209;28;20489;-87
2021/12/06 06:49:22;;;;;;;7.55;3.05;;;4.80;99.90;;;;;;5135058;28;20058;-87
2021/12/06 06:51:49;;;;;;;10.98;3.22;;;4.70;99.90;;;;;;5134927;28;20043;-87
2021/12/06 06:54:17;;;;;;;12.77;4.05;;;5.00;99.90;;;;;;5134638;28;20050;-87
2021/12/06 06:56:44;;;;;;;17.65;3.67;;;4.80;99.90;;;;;;5134429;28;20078;-87
2021/12/06 06:59:12;;;;;;;9.02;2.97;;;4.80;99.90;;;;;;5134465;28;20043;-87
2021/12/06 07:01:39;;;;;;;17.48;6.10;;;4.80;99.90;;;;;;5134280;28;20050;-87
2021/12/06 07:04:06;;;;;;;12.65;3.63;;;4.80;99.90;;;;;;5134577;28;20458;-86
2021/12/06 07:06:33;;;;;;;9.50;3.83;;;4.70;99.90;;;;;;5134272;28;20043;-87
2021/12/06 07:09:00;;;;;;;11.27;4.10;;;4.70;99.90;;;;;;5134036;28;20055;-87
2021/12/06 07:11:28;;;;;;;11.85;3.85;;;4.60;99.90;;;;;;5149163;27;20054;-88
2021/12/06 07:13:56;;;;;;;7.18;3.53;;;4.70;99.90;;;;;;5155439;27;20114;-87
2021/12/06 07:16:23;;;;;;;10.80;3.55;;;4.60;99.90;;;;;;5155686;27;20505;-87
2021/12/06 07:18:50;;;;;;;12.82;3.35;;;4.60;99.90;;;;;;5156047;27;20095;-88
2021/12/06 07:21:18;;;;;;;11.88;3.47;;;4.60;99.90;;;;;;5139728;27;20079;-87
2021/12/06 07:23:46;;;;;;;10.30;4.03;;;4.80;99.90;;;;;;5147477;27;20122;-87
2021/12/06 07:26:15;;;;;;;10.35;3.70;;;4.70;99.90;;;;;;5135483;27;20043;-88
2021/12/06 07:28:46;;;;;;;12.50;4.38;;;4.70;99.90;;;;;;5131498;27;20039;-87
2021/12/06 07:31:14;;;;;;;7.95;3.30;;;4.60;99.90;;;;;;5133579;27;20058;-88
2021/12/06 07:33:42;;;;;;;11.88;4.10;;;5.00;99.90;;;;;;5140601;27;20128;-87
2021/12/06 07:36:10;;;;;;;17.60;5.32;;;5.00;99.90;;;;;;5147017;27;20035;-87
2021/12/06 07:38:38;;;;;;;12.35;3.40;;;4.90;99.90;;;;;;5144983;27;20412;-88
2021/12/06 07:41:07;;;;;;;10.63;3.72;;;5.00;99.90;;;;;;5132987;27;20070;-84
2021/12/06 07:43:35;;;;;;;10.32;3.50;;;4.70;99.90;;;;;;5137546;27;20047;-85
2021/12/06 07:46:05;;;;;;;13.80;3.60;;;4.60;99.90;;;;;;5137543;27;20489;-85
2021/12/06 07:48:32;;;;;;;13.20;4.00;;;4.50;99.90;;;;;;5136980;27;20047;-85
2021/12/06 07:51:00;;;;;;;9.18;3.67;;;4.50;99.90;;;;;;5145725;27;20061;-85
2021/12/06 07:53:28;;;;;;;10.50;3.42;;;4.60;99.90;;;;;;5139318;27;20055;-87
2021/12/06 07:55:55;;;;;;;12.68;2.70;;;4.50;99.90;;;;;;5147647;27;20047;-87
2021/12/06 07:58:22;;;;;;;12.27;2.83;;;4.70;99.90;;;;;;5139001;27;20080;-86
2021/12/06 08:00:50;;;;;;;10.10;3.88;;;4.80;99.90;;;;;;5142571;27;20107;-86
2021/12/06 08:03:22;;;;;;;11.30;3.55;;;4.90;99.90;;;;;;5144691;27;20047;-86
2021/12/06 08:05:52;;;;;;;7.35;3.17;;;4.80;99.90;;;;;;5142945;27;20088;-86
2021/12/06 08:08:23;;;;;;;8.10;3.25;;;4.90;99.90;;;;;;5145202;27;20115;-86
2021/12/06 08:10:53;;;;;;;15.88;3.67;;;4.70;99.90;;;;;;5148296;27;20050;-87
2021/12/06 08:13:23;;;;;;;8.73;2.65;;;4.80;99.90;;;;;;5139936;27;20046;-86
2021/12/06 08:15:52;;;;;;;8.35;3.20;;;4.80;99.90;;;;;;5135939;27;20103;-85
2021/12/06 08:18:22;;;;;;;;;;;5.50;99.90;;;;;;5099337;27;20043;-85
2021/12/06 08:20:49;;;;;;;;;;;5.00;99.90;;;;;;5140734;27;19923;-86
2021/12/06 08:23:17;;;;;;;7.10;2.03;;;5.10;99.90;;;;;;5136604;27;19926;-88
2021/12/06 08:25:46;;;;;;;14.20;4.10;;;4.90;99.90;;;;;;5138037;27;20057;-86
2021/12/06 08:28:14;;;;;;;;;;;5.00;99.90;;;;;;5142345;27;20651;-86
2021/12/06 08:30:41;;;;;;;6.50;2.22;;;5.00;99.90;;;;;;5150100;27;20399;-85
2021/12/06 08:33:09;;;;;;;13.10;2.88;;;5.10;99.90;;;;;;5145005;27;20127;-87
2021/12/06 08:35:41;;;;;;;15.25;3.42;;;5.30;99.90;;;;;;5149063;27;20042;-85
2021/12/06 08:38:10;;;;;;;10.90;3.15;;;4.90;99.90;;;;;;5136767;27;20047;-86
2021/12/06 08:40:38;;;;;;;8.15;2.53;;;4.90;99.90;;;;;;5145912;27;20047;-85
2021/12/06 08:43:05;;;;;;;9.82;2.35;;;4.90;99.90;;;;;;5147768;27;20038;-83
2021/12/06 08:45:34;;;;;;;10.43;3.50;;;5.00;99.90;;;;;;5148315;27;20103;-85
2021/12/06 08:48:02;;;;;;;9.13;2.65;;;5.00;99.90;;;;;;5139495;27;20047;-87
2021/12/06 08:50:32;;;;;;;15.38;3.58;;;4.90;99.90;;;;;;5137835;27;20051;-87
2021/12/06 08:53:00;;;;;;;;;;;4.90;99.90;;;;;;5142197;27;20975;-84
2021/12/06 08:55:28;;;;;;;14.07;4.20;;;5.00;99.90;;;;;;5057475;27;21105;-85
2021/12/06 08:57:55;;;;;;;14.02;5.10;;;5.00;99.90;;;;;;5057432;27;21282;-83
2021/12/06 09:00:26;;;;;;;11.65;4.85;;;5.00;99.90;;;;;;5069099;27;20078;-83
2021/12/06 09:02:53;;;;;;;18.92;4.70;;;5.10;99.90;;;;;;5062403;27;20254;-85
2021/12/06 09:05:22;;;;;;;9.98;3.72;;;5.00;99.90;;;;;;5067116;27;20042;-86
2021/12/06 09:07:50;;;;;;;7.20;3.30;;;5.10;99.90;;;;;;5078202;27;20488;-85
2021/12/06 09:10:19;;;;;;;10.95;3.17;;;5.10;99.90;;;;;;5070438;27;20087;-85
2021/12/06 09:12:47;;;;;;;7.03;3.33;;;5.10;99.90;;;;;;5070764;27;20228;-85
2021/12/06 09:15:17;;;;;;;11.80;3.63;;;5.10;99.90;;;;;;5055194;27;20054;-85
2021/12/06 09:17:46;;;;;;;7.53;3.10;;;5.20;99.90;;;;;;5061959;27;20039;-85
2021/12/06 09:20:14;;;;;;;;;;;5.10;99.90;;;;;;5061793;27;20168;-86
2021/12/06 09:22:43;;;;;;;11.25;3.17;;;5.00;99.90;;;;;;5056660;27;19919;-89
2021/12/06 09:25:12;;;;;;;4.00;2.00;;;5.00;99.90;;;;;;5057789;27;20043;-88
2021/12/06 09:27:41;;;;;;;5.78;2.67;;;5.10;99.90;;;;;;5056297;27;20057;-88
2021/12/06 09:30:12;;;;;;;6.35;3.15;;;5.20;99.90;;;;;;5050821;27;20058;-87
2021/12/06 09:32:41;;;;;;;10.13;3.67;;;5.20;99.90;;;;;;5069781;27;20054;-87
2021/12/06 09:35:12;;;;;;;10.60;2.78;;;5.30;99.90;;;;;;5073690;27;21057;-84
2021/12/06 09:37:40;;;;;;;7.97;3.78;;;5.10;99.90;;;;;;5061207;27;20031;-83
2021/12/06 09:40:09;;;;;;;5.88;2.55;;;5.50;99.90;;;;;;5074786;27;20547;-87
2021/12/06 09:42:37;;;;;;;6.35;2.60;;;4.90;99.90;;;;;;5067695;27;20503;-86
2021/12/06 09:45:09;;;;;;;5.82;2.13;;;5.10;99.90;;;;;;5082275;27;20039;-84
2021/12/06 09:47:36;;;;;;;9.82;2.65;;;5.70;99.90;;;;;;5083841;27;20043;-84
2021/12/06 09:50:21;;;;;;;5.15;1.90;;;5.30;99.90;;;;;;5092883;27;20042;-84
2021/12/06 09:52:53;;;;;;;10.15;3.10;;;5.50;99.90;;;;;;5083419;27;20047;-84
2021/12/06 09:55:21;;;;;;;13.45;3.75;;;5.20;99.90;;;;;;5082659;27;20077;-87
2021/12/06 09:57:49;;;;;;;7.57;2.78;;;5.30;99.90;;;;;;5086306;27;20075;-86
2021/12/06 10:00:21;;;;;;;9.80;2.47;;;5.00;99.90;;;;;;5075832;27;20050;-86
2021/12/06 10:02:49;;;;;;;11.73;2.20;;;5.00;99.90;;;;;;5068676;27;20110;-84
2021/12/06 10:05:16;;;;;;;7.57;2.15;;;5.30;99.90;;;;;;5073048;27;20070;-84
2021/12/06 10:07:43;;;;;;;5.90;2.10;;;5.20;99.90;;;;;;5079254;27;20544;-83
2021/12/06 10:10:12;;;;;;;5.57;1.45;;;5.30;99.90;;;;;;5077854;27;20039;-85
2021/12/06 10:12:41;;;;;;;5.32;2.03;;;5.40;99.90;;;;;;5072024;27;20042;-83
2021/12/06 10:15:10;;;;;;;4.47;2.13;;;5.40;99.90;;;;;;5070747;27;20750;-82
2021/12/06 10:17:40;;;;;;;8.15;2.78;;;5.40;99.90;;;;;;5077593;27;20153;-83
2021/12/06 10:20:09;;;;;;;9.15;2.63;;;5.70;99.90;;;;;;5075336;27;20042;-84
2021/12/06 10:22:37;;;;;;;9.48;3.03;;;4.40;99.90;;;;;;5075606;27;20078;-85
2021/12/06 10:25:06;;;;;;;4.10;1.73;;;4.60;99.90;;;;;;5074825;27;20280;-83
2021/12/06 10:27:33;;;;;;;8.30;2.47;;;5.10;99.90;;;;;;5063194;27;20140;-84
2021/12/06 10:30:07;;;;;;;12.43;4.30;;;5.30;99.90;;;;;;5092687;27;20046;-84
2021/12/06 10:32:39;;;;;;;8.18;3.25;;;5.40;99.90;;;;;;5063566;27;20055;-84
2021/12/06 10:35:10;;;;;;;7.40;3.10;;;5.40;99.90;;;;;;5067955;27;20055;-85
2021/12/06 10:37:45;;;;;;;5.55;2.47;;;5.30;99.90;;;;;;5065997;27;20050;-84
2021/12/06 10:40:14;;;;;;;10.63;3.70;;;5.20;99.90;;;;;;5068034;27;20725;-84
2021/12/06 10:42:45;;;;;;;11.35;3.20;;;5.20;99.90;;;;;;5064862;27;20750;-83
2021/12/06 10:45:16;;;;;;;4.45;2.50;;;5.00;99.90;;;;;;5066818;27;20576;-83
2021/12/06 10:48:05;;;;;;;13.80;3.17;;;5.00;99.90;;;;;;5073860;27;20580;-84
2021/12/06 10:50:33;;;;;;;10.10;2.80;;;5.00;99.90;;;;;;5078286;27;20560;-85
2021/12/06 10:53:01;;;;;;;5.68;2.97;;;5.40;99.90;;;;;;5077741;27;20043;-88
2021/12/06 10:55:31;;;;;;;15.10;3.30;;;5.00;99.90;;;;;;5078585;27;20945;-88
2021/12/06 10:58:01;;;;;;;15.90;5.25;;;5.10;99.90;;;;;;5081768;27;21245;-92
2021/12/06 11:00:32;;;;;;;10.23;4.07;;;4.90;99.90;;;;;;5086678;27;20756;-84
2021/12/06 11:03:01;;;;;;;9.27;3.20;;;5.00;99.90;;;;;;5078758;27;20050;-83
2021/12/06 11:05:30;;;;;;;10.10;4.40;;;4.80;99.90;;;;;;5069067;27;20045;-85
2021/12/06 11:08:08;;;;;;;8.35;4.55;;;4.80;99.90;;;;;;5066865;27;20047;-84
2021/12/06 11:10:40;;;;;;;14.73;4.20;;;4.80;99.90;;;;;;5075950;27;20123;-84
2021/12/06 11:13:23;;;;;;;7.13;3.67;;;4.70;99.90;;;;;;5070162;27;20112;-84
2021/12/06 11:15:57;;;;;;;12.85;3.58;;;4.60;99.90;;;;;;5075107;27;20116;-86
2021/12/06 11:18:42;;;;;;;11.57;4.43;;;4.60;99.90;;;;;;5071370;27;20656;-84
2021/12/06 11:21:26;;;;;;;11.20;4.82;;;4.60;99.90;;;;;;5070190;27;20080;-84
2021/12/06 11:24:16;;;;;;;12.77;4.95;;;4.60;99.90;;;;;;5137080;27;20549;-84
2021/12/06 11:26:49;;;;;;;10.82;3.88;;;4.60;99.90;;;;;;5139188;27;20538;-85
2021/12/06 11:29:22;;;;;;;6.20;4.25;;;4.60;99.90;;;;;;5140309;27;20167;-85
2021/12/06 11:31:53;;;;;;;11.10;4.88;;;4.60;99.90;;;;;;5151024;27;20051;-85
2021/12/06 11:34:26;;;;;;;7.18;3.72;;;5.00;99.90;;;;;;5144768;27;20399;-86
2021/12/06 11:36:53;;;;;;;9.77;3.85;;;4.60;99.90;;;;;;5142960;27;20543;-86
2021/12/06 11:39:23;;;;;;;6.90;3.47;;;4.70;99.90;;;;;;5143241;27;20043;-85
2021/12/06 11:41:53;;;;;;;6.78;3.08;;;4.80;99.90;;;;;;5148151;27;20043;-85
2021/12/06 11:44:24;;;;;;;8.35;3.65;;;4.70;99.90;;;;;;5146970;27;20438;-85
2021/12/06 11:46:57;;;;;;;6.55;3.08;;;4.30;99.90;;;;;;5143440;27;20900;-86
2021/12/06 11:49:32;;;;;;;8.52;2.88;;;4.30;99.90;;;;;;5147027;27;20062;-86
2021/12/06 11:52:00;;;;;;;18.85;8.95;;;4.60;99.90;;;;;;5148960;27;20038;-86
2021/12/06 11:54:34;;;;;;;10.07;3.37;;;5.10;99.90;;;;;;5146014;27;20034;-84
2021/12/06 11:57:10;;;;;;;14.00;3.47;;;4.70;99.90;;;;;;5095893;27;21299;-83
2021/12/06 11:59:46;;;;;;;5.30;2.15;;;3.10;99.90;;;;;;5129523;27;20492;-83
2021/12/06 12:02:14;;;;;;;5.57;2.63;;;4.80;99.90;;;;;;5138177;27;20104;-84
2021/12/06 12:04:42;;;;;;;5.03;2.10;;;4.70;99.90;;;;;;5137469;27;20048;-83
2021/12/06 12:07:09;;;;;;;5.40;1.73;;;4.70;99.90;;;;;;5136371;27;20047;-83
2021/12/06 12:09:38;;;;;;;6.97;2.22;;;4.80;99.90;;;;;;5141231;27;20047;-83
2021/12/06 12:12:06;;;;;;;;;;;5.10;99.90;;;;;;5140529;27;21749;-83
2021/12/06 12:14:37;;;;;;;7.63;2.05;;;5.10;99.90;;;;;;5140005;27;19958;-84
2021/12/06 12:17:08;;;;;;;5.55;2.25;;;5.20;99.90;;;;;;5139685;27;20099;-85
2021/12/06 12:19:35;;;;;;;6.72;2.83;;;4.90;99.90;;;;;;5141193;27;20046;-86
2021/12/06 12:22:04;;;;;;;7.15;2.30;;;5.10;99.90;;;;;;5139675;27;20055;-85
2021/12/06 12:24:32;;;;;;;5.43;2.25;;;4.50;99.90;;;;;;5137025;27;20063;-84
2021/12/06 12:27:09;;;;;;;6.97;2.75;;;4.80;99.90;;;;;;5140158;27;20043;-84
2021/12/06 12:29:37;;;;;;;4.95;2.08;;;4.70;99.90;;;;;;5115366;27;20050;-84
2021/12/06 12:32:10;;;;;;;6.22;2.10;;;4.80;99.90;;;;;;5122917;27;20046;-84
2021/12/06 12:34:39;;;;;;;5.03;1.88;;;4.30;99.90;;;;;;5144587;27;20068;-83
2021/12/06 12:37:11;;;;;;;8.23;2.33;;;5.00;99.90;;;;;;5142289;27;20043;-84
2021/12/06 12:39:39;;;;;;;4.57;2.00;;;5.00;99.90;;;;;;5144939;27;20043;-84
2021/12/06 12:42:09;;;;;;;8.63;2.00;;;5.00;99.90;;;;;;5147132;27;20476;-83
2021/12/06 12:44:45;;;;;;;5.00;1.88;;;5.00;99.90;;;;;;5138095;27;20071;-81
2021/12/06 12:47:17;;;;;;;9.52;2.20;;;5.00;99.90;;;;;;5143811;27;20078;-83
2021/12/06 12:49:47;;;;;;;3.75;1.85;;;5.20;99.90;;;;;;5149128;27;20042;-84
2021/12/06 12:52:17;;;;;;;4.55;1.90;;;5.20;99.90;;;;;;5143156;27;20051;-85
2021/12/06 12:54:46;;;;;;;6.80;2.10;;;6.60;99.90;;;;;;5146239;27;20039;-84
2021/12/06 12:57:14;;;;;;;9.13;2.35;;;5.10;99.90;;;;;;5151747;27;20083;-83
2021/12/06 12:59:48;;;;;;;7.88;1.98;;;5.10;99.90;;;;;;5127206;27;20079;-83
2021/12/06 13:02:29;;;;;;;12.45;3.53;;;5.10;99.90;;;;;;5112436;27;20036;-82
2021/12/06 13:05:33;;;;;;;5.40;3.00;;;5.20;99.90;;;;;;5072131;27;20869;-82
2021/12/06 13:08:08;;;;;;;5.70;2.42;;;5.80;99.90;;;;;;5060687;27;20866;-83